createdAt,value
2022-12-06T00:01:23.371Z,52.37
2022-12-06T00:03:57.222Z,49.00
2022-12-06T00:06:30.179Z,48.87
2022-12-06T00:08:57.321Z,48.93
2022-12-06T00:11:27.714Z,52.83
2022-12-06T00:13:55.586Z,53.13
2022-12-06T00:16:22.685Z,51.10
2022-12-06T00:18:52.017Z,55.47
2022-12-06T00:21:23.476Z,54.17
2022-12-06T00:24:00.037Z,49.73
2022-12-06T00:26:26.930Z,59.00
2022-12-06T00:28:54.782Z,51.73
2022-12-06T00:31:22.238Z,50.57
2022-12-06T00:33:49.040Z,56.13
2022-12-06T00:36:20.243Z,53.07
2022-12-06T00:38:49.320Z,49.80
2022-12-06T00:41:27.165Z,50.63
2022-12-06T00:43:54.026Z,57.63
2022-12-06T00:46:22.680Z,55.10
2022-12-06T00:48:49.509Z,54.87
2022-12-06T00:51:16.839Z,60.23
2022-12-06T00:53:46.398Z,53.43
2022-12-06T00:56:13.225Z,53.17
2022-12-06T00:58:40.048Z,52.80
2022-12-06T01:01:09.235Z,54.20
2022-12-06T01:03:38.865Z,58.00
2022-12-06T01:06:06.994Z,60.47
2022-12-06T01:08:33.976Z,50.97
2022-12-06T01:11:02.889Z,54.80
2022-12-06T01:13:29.611Z,55.00
2022-12-06T01:16:06.480Z,57.37
2022-12-06T01:18:33.266Z,55.67
2022-12-06T01:21:07.212Z,54.77
2022-12-06T01:23:34.067Z,56.00
2022-12-06T01:26:05.743Z,55.97
2022-12-06T01:28:32.504Z,57.90
2022-12-06T01:30:59.407Z,57.67
2022-12-06T01:33:26.564Z,58.17
2022-12-06T01:35:53.303Z,55.83
2022-12-06T01:38:20.060Z,57.40
2022-12-06T01:40:47.530Z,55.53
2022-12-06T01:43:38.957Z,55.23
2022-12-06T01:46:24.616Z,54.33
2022-12-06T01:48:54.168Z,59.57
2022-12-06T01:51:20.860Z,55.43
2022-12-06T01:53:48.329Z,54.97
2022-12-06T01:56:15.186Z,55.90
2022-12-06T01:58:44.372Z,51.27
2022-12-06T02:01:17.530Z,56.80
2022-12-06T02:03:48.152Z,59.90
2022-12-06T02:06:17.738Z,57.20
2022-12-06T02:08:49.638Z,53.97
2022-12-06T02:11:18.393Z,55.83
2022-12-06T02:13:47.264Z,53.03
2022-12-06T02:16:26.752Z,57.73
2022-12-06T02:18:59.826Z,52.77
2022-12-06T02:21:38.962Z,59.93
2022-12-06T02:24:30.237Z,56.97
2022-12-06T02:27:21.025Z,51.97
2022-12-06T02:30:00.111Z,57.77
2022-12-06T02:32:54.813Z,53.80
2022-12-06T02:35:46.435Z,55.60
2022-12-06T02:38:21.157Z,56.33
2022-12-06T02:40:57.526Z,62.73
2022-12-06T02:43:27.974Z,60.00
2022-12-06T02:45:56.468Z,49.10
2022-12-06T02:48:23.486Z,61.27
2022-12-06T02:50:55.134Z,61.33
2022-12-06T02:53:22.258Z,60.77
2022-12-06T02:55:49.024Z,52.17
2022-12-06T02:58:18.014Z,51.90
2022-12-06T03:00:50.896Z,58.23
2022-12-06T03:03:28.084Z,54.10
2022-12-06T03:06:03.954Z,51.30
2022-12-06T03:08:39.282Z,55.43
2022-12-06T03:11:05.980Z,52.27
2022-12-06T03:14:02.419Z,53.00
2022-12-06T03:16:49.076Z,54.17
2022-12-06T03:19:27.000Z,54.20
2022-12-06T03:22:14.845Z,50.90
2022-12-06T03:24:42.009Z,57.73
2022-12-06T03:27:16.259Z,58.13
2022-12-06T03:29:45.839Z,56.37
2022-12-06T03:32:13.362Z,57.17
2022-12-06T03:34:44.792Z,57.53
2022-12-06T03:37:17.145Z,52.23
2022-12-06T03:39:47.665Z,55.90
2022-12-06T03:42:14.357Z,57.63
2022-12-06T03:44:41.122Z,50.07
2022-12-06T03:47:30.945Z,48.80
2022-12-06T03:50:01.819Z,58.67
2022-12-06T03:52:29.048Z,56.80
2022-12-06T03:54:57.930Z,53.83
2022-12-06T03:57:26.670Z,56.33
2022-12-06T03:59:53.580Z,56.30
2022-12-06T04:02:20.288Z,51.70
2022-12-06T04:04:49.350Z,51.80
2022-12-06T04:07:21.288Z,53.97
2022-12-06T04:09:56.732Z,51.97
2022-12-06T04:12:44.506Z,54.50
2022-12-06T04:15:13.726Z,52.90
2022-12-06T04:17:59.429Z,49.40
2022-12-06T04:20:26.620Z,50.60
2022-12-06T04:23:08.239Z,48.20
2022-12-06T04:25:35.956Z,47.20
2022-12-06T04:28:21.748Z,56.43
2022-12-06T04:31:07.213Z,53.80
2022-12-06T04:33:52.397Z,59.53
2022-12-06T04:36:37.440Z,53.20
2022-12-06T04:39:08.863Z,55.27
2022-12-06T04:41:56.727Z,55.00
2022-12-06T04:44:25.719Z,53.80
2022-12-06T04:46:52.552Z,53.03
2022-12-06T04:49:19.344Z,49.53
2022-12-06T04:51:48.480Z,52.67
2022-12-06T04:54:15.198Z,52.03
2022-12-06T04:56:44.026Z,53.40
2022-12-06T04:59:10.761Z,52.30
2022-12-06T05:01:39.805Z,52.23
2022-12-06T05:04:06.712Z,50.70
2022-12-06T05:06:33.545Z,52.63
2022-12-06T05:09:00.260Z,48.60
2022-12-06T05:11:26.952Z,55.33
2022-12-06T05:13:53.663Z,51.47
2022-12-06T05:16:20.450Z,51.17
2022-12-06T05:18:49.670Z,51.40
2022-12-06T05:21:21.023Z,49.23
2022-12-06T05:23:50.033Z,47.50
2022-12-06T05:26:20.800Z,49.40
2022-12-06T05:28:50.087Z,46.73
2022-12-06T05:31:19.460Z,48.87
2022-12-06T05:33:46.461Z,47.33
2022-12-06T05:36:19.033Z,42.60
2022-12-06T05:38:51.550Z,45.70
2022-12-06T05:41:19.468Z,45.97
2022-12-06T05:43:46.190Z,48.93
2022-12-06T05:46:17.643Z,45.70
2022-12-06T05:48:44.909Z,46.83
2022-12-06T05:51:11.813Z,42.93
2022-12-06T05:53:41.420Z,41.07
2022-12-06T05:56:09.854Z,42.70
2022-12-06T05:58:36.693Z,41.80
2022-12-06T06:01:03.663Z,39.73
2022-12-06T06:03:30.504Z,39.87
2022-12-06T06:05:59.275Z,40.90
2022-12-06T06:08:26.767Z,38.60
2022-12-06T06:10:53.627Z,49.63
2022-12-06T06:13:23.138Z,44.80
2022-12-06T06:15:50.085Z,50.60
2022-12-06T06:18:17.652Z,54.13
2022-12-06T06:20:51.531Z,41.00
2022-12-06T06:23:18.382Z,43.47
2022-12-06T06:25:45.109Z,43.33
2022-12-06T06:28:11.888Z,40.70
2022-12-06T06:30:40.929Z,40.20
2022-12-06T06:33:07.889Z,40.57
2022-12-06T06:35:34.705Z,43.23
2022-12-06T06:38:01.503Z,41.10
2022-12-06T06:40:31.109Z,37.70
2022-12-06T06:43:17.946Z,39.00
2022-12-06T06:45:46.136Z,42.47
2022-12-06T06:48:15.063Z,41.30
2022-12-06T06:50:41.813Z,33.87
2022-12-06T06:53:08.715Z,37.90
2022-12-06T06:55:36.273Z,38.87
2022-12-06T06:58:05.785Z,38.60
2022-12-06T07:00:33.035Z,37.50
2022-12-06T07:02:59.939Z,36.23
2022-12-06T07:05:27.292Z,37.67
2022-12-06T07:07:54.577Z,36.33
2022-12-06T07:10:21.448Z,44.13
2022-12-06T07:12:54.206Z,35.10
2022-12-06T07:15:25.710Z,35.07
2022-12-06T07:17:54.952Z,35.30
2022-12-06T07:20:24.160Z,33.13
2022-12-06T07:22:50.859Z,29.30
2022-12-06T07:25:19.764Z,28.17
2022-12-06T07:27:46.490Z,31.33
2022-12-06T07:30:17.378Z,32.83
2022-12-06T07:32:45.567Z,30.60
2022-12-06T07:35:12.302Z,31.43
2022-12-06T07:37:42.502Z,31.73
2022-12-06T07:40:14.862Z,32.73
2022-12-06T07:43:00.104Z,32.77
2022-12-06T07:45:26.885Z,31.03
2022-12-06T07:47:53.587Z,33.87
2022-12-06T07:50:21.507Z,31.50
2022-12-06T07:52:49.112Z,31.33
2022-12-06T07:55:16.168Z,33.07
2022-12-06T07:57:44.045Z,33.17
2022-12-06T08:00:15.254Z,32.87
2022-12-06T08:02:42.156Z,37.70
2022-12-06T08:05:11.632Z,36.83
2022-12-06T08:07:38.682Z,35.77
2022-12-06T08:10:06.287Z,38.80
2022-12-06T08:12:33.125Z,38.57
2022-12-06T08:15:00.284Z,40.47
2022-12-06T08:17:30.076Z,44.47
2022-12-06T08:20:01.596Z,42.73
2022-12-06T08:22:28.999Z,37.73
2022-12-06T08:24:55.708Z,46.87
2022-12-06T08:27:24.701Z,44.60
2022-12-06T08:29:53.951Z,43.80
2022-12-06T08:32:20.769Z,45.00
2022-12-06T08:34:49.734Z,54.07
2022-12-06T08:37:16.460Z,57.90
2022-12-06T08:39:43.180Z,52.23
2022-12-06T08:42:14.615Z,56.90
2022-12-06T08:44:41.346Z,52.47
2022-12-06T08:47:08.106Z,55.47
2022-12-06T08:49:34.838Z,51.77
2022-12-06T08:52:06.010Z,53.53
2022-12-06T08:54:35.196Z,57.23
2022-12-06T08:57:04.551Z,53.90
2022-12-06T08:59:33.495Z,51.33
2022-12-06T09:02:00.416Z,54.73
2022-12-06T09:04:32.153Z,55.67
2022-12-06T09:07:07.413Z,64.37
2022-12-06T09:09:37.164Z,55.17
2022-12-06T09:12:03.940Z,56.90
2022-12-06T09:14:30.961Z,53.90
2022-12-06T09:17:00.159Z,49.23
2022-12-06T09:19:26.874Z,58.87
2022-12-06T09:21:53.783Z,48.97
2022-12-06T09:24:20.616Z,52.13
2022-12-06T09:26:47.494Z,52.07
2022-12-06T09:29:16.886Z,53.77
2022-12-06T09:31:43.632Z,57.67
2022-12-06T09:34:12.980Z,58.70
2022-12-06T09:36:56.118Z,56.50
2022-12-06T09:39:31.274Z,49.97
2022-12-06T09:42:33.005Z,71.57
2022-12-06T09:45:27.016Z,64.30
2022-12-06T09:48:02.742Z,76.40
2022-12-06T09:50:37.159Z,61.07
2022-12-06T09:53:22.336Z,73.13
2022-12-06T09:56:06.267Z,70.90
2022-12-06T09:58:38.404Z,58.43
2022-12-06T10:01:36.893Z,57.13
2022-12-06T10:04:24.786Z,64.33
2022-12-06T10:07:07.448Z,57.27
2022-12-06T10:09:47.682Z,53.40
2022-12-06T10:12:39.620Z,55.50
2022-12-06T10:15:21.292Z,49.67
2022-12-06T10:18:16.246Z,55.20
2022-12-06T10:21:01.647Z,62.60
2022-12-06T10:23:38.603Z,57.37
2022-12-06T10:26:19.311Z,61.23
2022-12-06T10:28:51.316Z,57.73
2022-12-06T10:31:30.861Z,62.63
2022-12-06T10:34:02.890Z,67.50
2022-12-06T10:37:01.103Z,63.47
2022-12-06T10:39:47.291Z,62.50
2022-12-06T10:42:27.127Z,66.37
2022-12-06T10:45:03.200Z,62.83
2022-12-06T10:47:36.497Z,58.27
2022-12-06T10:50:21.382Z,57.53
2022-12-06T10:52:57.284Z,61.50
2022-12-06T10:55:58.870Z,69.97
2022-12-06T10:58:46.474Z,68.90
2022-12-06T11:01:25.617Z,76.30
2022-12-06T11:04:09.861Z,78.10
2022-12-06T11:06:54.330Z,88.33
2022-12-06T11:09:31.511Z,76.10
2022-12-06T11:11:58.279Z,67.10
2022-12-06T11:14:30.667Z,69.47
2022-12-06T11:17:00.901Z,73.03
2022-12-06T11:19:46.698Z,78.43
2022-12-06T11:22:22.313Z,74.23
2022-12-06T11:25:00.298Z,72.20
2022-12-06T11:27:33.303Z,71.40
2022-12-06T11:30:02.817Z,69.93
2022-12-06T11:32:31.916Z,73.57
2022-12-06T11:34:59.154Z,65.60
2022-12-06T11:37:30.545Z,68.57
2022-12-06T11:40:05.643Z,63.80
2022-12-06T11:42:32.418Z,65.93
2022-12-06T11:45:18.277Z,66.50
2022-12-06T11:47:45.371Z,59.43
2022-12-06T11:50:17.189Z,69.80
2022-12-06T11:52:50.358Z,64.93
2022-12-06T11:55:30.351Z,60.50
2022-12-06T11:58:04.112Z,63.07
2022-12-06T12:00:34.815Z,66.00
2022-12-06T12:03:01.716Z,63.93
2022-12-06T12:05:38.722Z,63.27
2022-12-06T12:08:07.460Z,70.40
2022-12-06T12:10:38.585Z,66.77
2022-12-06T12:13:30.038Z,65.43
2022-12-06T12:16:17.874Z,67.20
2022-12-06T12:19:29.544Z,68.83
2022-12-06T12:21:56.914Z,71.53
2022-12-06T12:27:42.335Z,79.93
2022-12-06T12:30:27.365Z,83.40
2022-12-06T12:33:06.192Z,87.33
2022-12-06T12:35:33.596Z,80.20
2022-12-06T12:38:03.983Z,85.43
2022-12-06T12:40:38.699Z,88.17
2022-12-06T12:43:21.724Z,86.93
2022-12-06T12:46:08.388Z,82.57
2022-12-06T12:48:38.239Z,83.23
2022-12-06T12:51:07.103Z,83.93
2022-12-06T12:53:37.625Z,88.70
2022-12-06T12:56:13.914Z,92.17
2022-12-06T12:58:44.253Z,94.87
2022-12-06T13:01:39.060Z,81.63
2022-12-06T13:04:43.968Z,93.73
2022-12-06T13:07:27.660Z,111.53
2022-12-06T13:09:58.115Z,106.80
2022-12-06T13:12:45.012Z,98.37
2022-12-06T13:15:34.053Z,93.27
2022-12-06T13:18:28.038Z,111.33
2022-12-06T13:20:57.603Z,112.27
2022-12-06T13:23:26.760Z,111.07
2022-12-06T13:26:14.229Z,106.53
2022-12-06T13:28:44.989Z,103.37
2022-12-06T13:31:18.591Z,93.80
2022-12-06T13:34:00.560Z,97.70
2022-12-06T13:36:27.486Z,94.13
2022-12-06T13:38:56.159Z,99.03
2022-12-06T13:41:53.433Z,95.63
2022-12-06T13:44:41.771Z,100.30
2022-12-06T13:47:38.595Z,104.57
2022-12-06T13:50:17.526Z,95.13
2022-12-06T13:52:44.320Z,88.70
2022-12-06T13:55:26.187Z,88.63
2022-12-06T13:57:56.120Z,97.43
2022-12-06T14:00:49.183Z,98.40
2022-12-06T14:03:19.134Z,87.47
2022-12-06T14:06:01.104Z,89.70
2022-12-06T14:08:43.646Z,91.50
2022-12-06T14:11:16.137Z,90.00
2022-12-06T14:14:01.341Z,100.03
2022-12-06T14:16:32.926Z,90.80
2022-12-06T14:19:22.505Z,86.17
2022-12-06T14:22:03.523Z,89.10
2022-12-06T14:24:35.378Z,87.50
2022-12-06T14:27:07.987Z,95.57
2022-12-06T14:29:34.736Z,89.20
2022-12-06T14:32:01.524Z,88.60
2022-12-06T14:34:30.255Z,93.57
2022-12-06T14:36:59.935Z,94.43
2022-12-06T14:39:31.066Z,99.07
2022-12-06T14:42:38.466Z,83.43
2022-12-06T14:45:06.870Z,88.40
2022-12-06T14:47:36.169Z,86.30
2022-12-06T14:50:21.322Z,79.23
2022-12-06T14:52:58.719Z,78.17
2022-12-06T14:55:25.865Z,77.53
2022-12-06T14:57:57.795Z,81.47
2022-12-06T15:00:28.126Z,88.80
2022-12-06T15:02:58.956Z,80.07
2022-12-06T15:05:40.059Z,79.50
2022-12-06T15:08:31.087Z,77.83
2022-12-06T15:11:00.896Z,79.43
2022-12-06T15:13:28.158Z,73.23
2022-12-06T15:16:09.825Z,81.13
2022-12-06T15:18:57.009Z,79.77
2022-12-06T15:21:23.815Z,67.57
2022-12-06T15:23:54.293Z,75.17
2022-12-06T15:26:21.723Z,75.10
2022-12-06T15:28:50.673Z,73.10
2022-12-06T15:31:21.248Z,73.70
2022-12-06T15:33:50.500Z,69.23
2022-12-06T15:36:23.964Z,65.80
2022-12-06T15:38:53.343Z,64.40
2022-12-06T15:41:22.499Z,65.07
2022-12-06T15:43:49.521Z,63.23
2022-12-06T15:46:24.136Z,64.77
2022-12-06T15:48:53.569Z,66.50
2022-12-06T15:51:24.877Z,61.97
2022-12-06T15:53:51.687Z,59.60
2022-12-06T15:56:20.255Z,62.73
2022-12-06T15:58:47.374Z,60.90
2022-12-06T16:01:34.622Z,63.50
2022-12-06T16:04:01.545Z,53.10
2022-12-06T16:06:31.066Z,59.37
2022-12-06T16:09:00.012Z,55.93
2022-12-06T16:11:29.015Z,57.33
2022-12-06T16:13:58.078Z,56.83
2022-12-06T16:16:24.896Z,55.97
2022-12-06T16:18:51.881Z,50.37
2022-12-06T16:21:30.858Z,49.43
2022-12-06T16:24:16.732Z,52.13
2022-12-06T16:26:45.074Z,50.33
2022-12-06T16:29:24.950Z,50.67
2022-12-06T16:31:52.887Z,48.60
2022-12-06T16:34:22.249Z,50.30
2022-12-06T16:36:58.932Z,49.93
2022-12-06T16:39:30.842Z,46.77
2022-12-06T16:41:57.706Z,47.63
2022-12-06T16:44:24.543Z,41.57
2022-12-06T16:46:53.872Z,41.73
2022-12-06T16:52:15.160Z,39.70
2022-12-06T16:54:44.473Z,38.27
2022-12-06T16:57:13.779Z,40.80
2022-12-06T16:59:42.508Z,40.67
2022-12-06T17:02:27.627Z,41.57
2022-12-06T17:04:57.243Z,39.37
2022-12-06T17:07:26.208Z,36.10
2022-12-06T17:09:53.270Z,41.07
2022-12-06T17:12:22.622Z,34.87
2022-12-06T17:14:49.512Z,35.93
2022-12-06T17:17:17.405Z,39.60
2022-12-06T17:19:44.427Z,37.03
2022-12-06T17:22:11.583Z,41.33
2022-12-06T17:24:38.505Z,37.97
2022-12-06T17:27:09.139Z,39.63
2022-12-06T17:29:38.561Z,38.77
2022-12-06T17:32:05.695Z,38.33
2022-12-06T17:34:32.585Z,39.17
2022-12-06T17:36:59.639Z,37.30
2022-12-06T17:39:26.474Z,42.30
2022-12-06T17:42:11.761Z,36.70
2022-12-06T17:44:39.873Z,38.80
2022-12-06T17:47:06.938Z,40.50
2022-12-06T17:49:36.026Z,40.93
2022-12-06T17:52:05.745Z,37.43
2022-12-06T17:54:33.870Z,40.77
2022-12-06T17:57:00.631Z,38.53
2022-12-06T17:59:29.427Z,38.93
2022-12-06T18:02:18.001Z,38.57
2022-12-06T18:04:45.809Z,37.67
2022-12-06T18:07:13.060Z,36.20
2022-12-06T18:09:39.915Z,35.30
2022-12-06T18:12:09.594Z,40.10
2022-12-06T18:14:38.860Z,39.03
2022-12-06T18:17:05.717Z,38.97
2022-12-06T18:19:33.562Z,38.13
2022-12-06T18:22:00.353Z,41.13
2022-12-06T18:24:33.550Z,41.47
2022-12-06T18:27:04.767Z,39.83
2022-12-06T18:29:31.585Z,37.03
2022-12-06T18:31:58.403Z,40.23
2022-12-06T18:34:25.264Z,37.17
2022-12-06T18:36:54.152Z,37.77
2022-12-06T18:39:24.768Z,41.03
2022-12-06T18:41:54.436Z,35.90
2022-12-06T18:44:21.407Z,49.77
2022-12-06T18:46:48.231Z,44.67
2022-12-06T18:49:15.034Z,40.70
2022-12-06T18:51:41.902Z,38.40
2022-12-06T18:54:08.891Z,41.83
2022-12-06T18:56:35.887Z,40.33
2022-12-06T18:59:06.350Z,43.60
2022-12-06T19:01:34.902Z,40.33
2022-12-06T19:04:03.220Z,38.87
2022-12-06T19:06:34.213Z,36.40
2022-12-06T19:09:03.625Z,36.70
2022-12-06T19:11:30.373Z,41.03
2022-12-06T19:14:00.091Z,37.13
2022-12-06T19:16:41.037Z,40.23
2022-12-06T19:19:16.186Z,38.63
2022-12-06T19:21:45.761Z,40.80
2022-12-06T19:24:13.428Z,38.37
2022-12-06T19:26:40.475Z,39.13
2022-12-06T19:29:07.642Z,41.17
2022-12-06T19:31:34.421Z,37.77
2022-12-06T19:34:01.201Z,38.83
2022-12-06T19:36:31.412Z,35.03
2022-12-06T19:38:59.556Z,36.70
2022-12-06T19:41:26.475Z,37.00
2022-12-06T19:44:11.888Z,40.23
2022-12-06T19:46:42.653Z,36.57
2022-12-06T19:49:12.064Z,38.20
2022-12-06T19:51:40.119Z,39.13
2022-12-06T19:54:10.613Z,33.73
2022-12-06T19:56:39.887Z,37.93
2022-12-06T19:59:15.309Z,40.30
2022-12-06T20:01:46.574Z,39.90
2022-12-06T20:04:23.021Z,44.90
2022-12-06T20:06:50.540Z,45.17
2022-12-06T20:09:20.769Z,39.43
2022-12-06T20:12:01.920Z,42.77
2022-12-06T20:14:35.041Z,43.63
2022-12-06T20:17:04.929Z,46.40
2022-12-06T20:19:31.654Z,43.13
2022-12-06T20:21:58.385Z,43.90
2022-12-06T20:24:25.131Z,40.17
2022-12-06T20:26:54.942Z,42.53
2022-12-06T20:29:25.094Z,43.50
2022-12-06T20:31:54.921Z,43.70
2022-12-06T20:34:24.020Z,37.30
2022-12-06T20:36:53.313Z,42.83
2022-12-06T20:39:21.889Z,43.03
2022-12-06T20:41:51.325Z,40.50
2022-12-06T20:44:18.403Z,37.83
2022-12-06T20:46:49.832Z,38.47
2022-12-06T20:49:19.093Z,41.97
2022-12-06T20:51:51.277Z,42.83
2022-12-06T20:54:22.092Z,44.87
2022-12-06T20:56:51.991Z,45.43
2022-12-06T20:59:23.775Z,45.67
2022-12-06T21:01:52.637Z,43.07
2022-12-06T21:04:19.416Z,44.20
2022-12-06T21:06:48.591Z,43.37
2022-12-06T21:09:15.459Z,44.73
2022-12-06T21:11:42.220Z,44.53
2022-12-06T21:14:09.943Z,39.70
2022-12-06T21:16:38.268Z,41.83
2022-12-06T21:19:12.599Z,39.77
2022-12-06T21:21:40.829Z,44.50
2022-12-06T21:24:14.708Z,39.20
2022-12-06T21:26:41.741Z,40.27
2022-12-06T21:29:13.876Z,39.33
2022-12-06T21:31:40.667Z,41.03
2022-12-06T21:34:07.478Z,40.17
2022-12-06T21:36:36.931Z,42.13
2022-12-06T21:39:03.835Z,39.77
2022-12-06T21:41:30.651Z,39.47
2022-12-06T21:43:59.532Z,40.80
2022-12-06T21:46:29.083Z,39.80
2022-12-06T21:48:59.667Z,39.73
2022-12-06T21:51:27.999Z,38.77
2022-12-06T21:53:55.898Z,42.07
2022-12-06T21:56:24.390Z,47.07
2022-12-06T21:58:53.391Z,45.03
2022-12-06T22:01:24.863Z,44.80
2022-12-06T22:03:52.896Z,40.90
2022-12-06T22:06:19.697Z,40.80
2022-12-06T22:08:49.176Z,42.77
2022-12-06T22:11:17.602Z,42.93
2022-12-06T22:13:44.636Z,40.97
2022-12-06T22:16:14.268Z,39.43
2022-12-06T22:18:45.794Z,39.60
2022-12-06T22:21:18.114Z,40.47
2022-12-06T22:23:44.948Z,41.63
2022-12-06T22:26:14.685Z,38.20
2022-12-06T22:28:44.210Z,41.27
2022-12-06T22:31:16.000Z,43.63
2022-12-06T22:33:45.367Z,38.47
2022-12-06T22:36:14.579Z,42.40
2022-12-06T22:38:41.429Z,42.03
2022-12-06T22:41:08.889Z,42.03
2022-12-06T22:43:40.434Z,40.63
2022-12-06T22:46:14.803Z,41.57
2022-12-06T22:48:44.168Z,41.57
2022-12-06T22:51:26.494Z,41.67
2022-12-06T22:53:56.887Z,45.57
2022-12-06T22:56:24.123Z,43.33
2022-12-06T22:58:56.651Z,42.10
2022-12-06T23:01:26.970Z,42.60
2022-12-06T23:03:53.922Z,46.30
2022-12-06T23:06:22.428Z,43.07
2022-12-06T23:08:49.317Z,45.77
2022-12-06T23:11:20.894Z,43.07
2022-12-06T23:13:47.741Z,42.50
2022-12-06T23:16:19.110Z,41.43
2022-12-06T23:18:45.973Z,41.27
2022-12-06T23:21:16.339Z,42.83
2022-12-06T23:23:46.034Z,42.67
2022-12-06T23:26:17.219Z,38.87
2022-12-06T23:28:44.183Z,42.23
2022-12-06T23:31:16.126Z,36.47
2022-12-06T23:33:43.319Z,37.80
2022-12-06T23:36:16.347Z,36.97
2022-12-06T23:38:43.226Z,38.27
2022-12-06T23:41:17.146Z,42.70
2022-12-06T23:43:46.180Z,45.37
2022-12-06T23:46:21.973Z,44.80
2022-12-06T23:48:52.505Z,38.53
2022-12-06T23:51:22.671Z,47.13
2022-12-06T23:53:54.030Z,44.40
2022-12-06T23:56:21.559Z,48.53
2022-12-06T23:58:50.267Z,43.73
